createdAt,value
2024-02-17T00:06:44.444Z,100406.28
2024-02-17T00:16:47.084Z,100412.31
2024-02-17T00:26:50.300Z,100416.94
2024-02-17T00:36:52.835Z,100425.28
2024-02-17T00:46:55.649Z,100425.03
2024-02-17T00:56:58.263Z,100429.56
2024-02-17T01:07:00.863Z,100424.03
2024-02-17T01:17:03.455Z,100415.16
2024-02-17T01:27:08.897Z,100404.47
2024-02-17T01:37:11.725Z,100410.75
2024-02-17T01:47:14.826Z,100417.00
2024-02-17T01:57:18.016Z,100411.72
2024-02-17T02:07:20.784Z,100404.81
2024-02-17T02:17:23.277Z,100405.53
2024-02-17T02:27:26.646Z,100402.06
2024-02-17T02:37:29.441Z,100401.22
2024-02-17T02:47:32.103Z,100406.56
2024-02-17T02:57:34.883Z,100401.28
2024-02-17T03:07:37.496Z,100406.50
2024-02-17T03:17:40.020Z,100418.31
2024-02-17T03:27:42.619Z,100431.56
2024-02-17T03:37:45.206Z,100419.44
2024-02-17T03:47:47.819Z,100437.41
2024-02-17T03:57:50.501Z,100445.47
2024-02-17T04:07:53.110Z,100449.72
2024-02-17T04:17:55.898Z,100462.97
2024-02-17T04:27:59.718Z,100470.97
2024-02-17T04:38:02.305Z,100476.41
2024-02-17T04:48:05.183Z,100474.81
2024-02-17T04:58:08.112Z,100481.03
2024-02-17T05:08:10.689Z,100485.34
2024-02-17T05:18:13.475Z,100493.88
2024-02-17T05:28:16.404Z,100517.56
2024-02-17T05:38:18.929Z,100514.03
2024-02-17T05:48:21.588Z,100520.13
2024-02-17T05:58:24.199Z,100527.91
2024-02-17T06:08:26.952Z,100527.78
2024-02-17T06:18:48.515Z,100536.25
2024-02-17T06:28:52.689Z,100553.34
2024-02-17T06:38:55.258Z,100544.19
2024-02-17T06:48:57.829Z,100565.53
2024-02-17T06:59:00.533Z,100573.94
2024-02-17T07:09:03.312Z,100586.09
2024-02-17T07:19:06.012Z,100572.28
2024-02-17T07:29:12.851Z,100599.84
2024-02-17T07:39:15.625Z,100608.75
2024-02-17T07:49:19.044Z,100619.19
2024-02-17T07:59:21.669Z,100622.13
2024-02-17T08:09:24.177Z,100616.94
2024-02-17T08:19:26.765Z,100646.94
2024-02-17T08:29:29.465Z,100644.47
2024-02-17T08:39:32.053Z,100655.41
2024-02-17T08:49:34.603Z,100661.34
2024-02-17T08:59:40.046Z,100661.41
2024-02-17T09:09:42.712Z,100641.44
2024-02-17T09:19:45.731Z,100667.19
2024-02-17T09:29:48.424Z,100680.34
2024-02-17T09:39:51.023Z,100687.97
2024-02-17T09:49:54.154Z,100674.44
2024-02-17T09:59:56.728Z,100691.56
2024-02-17T10:10:00.629Z,100693.56
2024-02-17T10:20:05.232Z,100722.47
2024-02-17T10:30:08.857Z,100721.16
2024-02-17T10:40:14.877Z,100719.28
2024-02-17T10:50:22.686Z,100717.44
2024-02-17T11:00:25.773Z,100726.63
2024-02-17T11:10:30.747Z,100725.78
2024-02-17T11:20:33.453Z,100731.75
2024-02-17T11:30:50.735Z,100718.56
2024-02-17T11:40:55.805Z,100740.59
2024-02-17T11:51:27.118Z,100763.69
2024-02-17T12:01:32.510Z,100763.09
2024-02-17T12:11:38.482Z,100792.06
2024-02-17T12:21:42.617Z,100808.56
2024-02-17T12:31:51.983Z,100836.16
2024-02-17T12:42:01.694Z,100854.25
2024-02-17T12:52:04.589Z,100840.81
2024-02-17T13:02:07.208Z,100846.78
2024-02-17T13:12:10.087Z,100858.25
2024-02-17T13:22:13.983Z,100835.72
2024-02-17T13:32:17.226Z,100839.28
2024-02-17T13:42:19.712Z,100856.78
2024-02-17T13:52:22.350Z,100873.41
2024-02-17T14:02:28.486Z,100871.66
2024-02-17T14:12:31.120Z,100887.69
2024-02-17T14:22:33.680Z,100886.66
2024-02-17T14:32:36.744Z,100904.94
2024-02-17T14:42:44.378Z,100903.13
2024-02-17T14:52:50.197Z,100928.44
2024-02-17T15:02:53.826Z,100934.31
2024-02-17T15:12:56.467Z,100959.25
2024-02-17T15:22:59.079Z,100958.03
2024-02-17T15:33:01.841Z,100953.50
2024-02-17T15:43:04.555Z,100961.09
2024-02-17T15:53:09.615Z,100983.56
2024-02-17T16:03:12.527Z,100991.84
2024-02-17T16:13:17.179Z,101002.50
2024-02-17T16:23:20.176Z,101031.69
2024-02-17T16:33:25.998Z,101031.88
2024-02-17T16:43:30.716Z,101052.22
2024-02-17T16:53:33.367Z,101069.13
2024-02-17T17:03:36.807Z,101081.69
2024-02-17T17:13:39.348Z,101068.03
2024-02-17T17:23:41.867Z,101094.25
2024-02-17T17:33:44.608Z,101085.44
2024-02-17T17:43:47.275Z,101093.31
2024-02-17T17:53:50.086Z,101107.19
2024-02-17T18:03:52.705Z,101130.38
2024-02-17T18:13:55.348Z,101119.50
2024-02-17T18:23:57.974Z,101135.66
2024-02-17T18:34:01.758Z,101146.47
2024-02-17T18:44:07.407Z,101153.91
2024-02-17T18:54:09.843Z,101156.09
2024-02-17T19:04:12.458Z,101173.28
2024-02-17T19:14:16.156Z,101183.50
2024-02-17T19:24:18.941Z,101176.44
2024-02-17T19:34:21.640Z,101172.16
2024-02-17T19:44:24.316Z,101202.13
2024-02-17T19:54:26.910Z,101210.84
2024-02-17T20:04:30.303Z,101228.94
2024-02-17T20:14:36.060Z,101236.09
2024-02-17T20:24:39.204Z,101221.84
2024-02-17T20:34:42.106Z,101248.00
2024-02-17T20:44:44.760Z,101253.97
2024-02-17T20:54:47.480Z,101261.66
2024-02-17T21:04:50.142Z,101273.72
2024-02-17T21:14:52.933Z,101282.22
2024-02-17T21:24:55.570Z,101278.50
2024-02-17T21:35:04.790Z,101282.88
2024-02-17T21:45:10.635Z,101272.25
2024-02-17T21:55:14.724Z,101286.97
2024-02-17T22:05:17.404Z,101304.44
2024-02-17T22:15:20.027Z,101305.16
2024-02-17T22:25:22.773Z,101306.25
2024-02-17T22:35:26.282Z,101308.66
2024-02-17T22:45:30.140Z,101323.13
2024-02-17T22:55:32.901Z,101330.75
2024-02-17T23:05:35.480Z,101324.78
2024-02-17T23:15:37.949Z,101333.38
2024-02-17T23:25:41.686Z,101324.53
2024-02-17T23:35:44.176Z,101320.59
2024-02-17T23:45:46.714Z,101319.06
2024-02-17T23:55:49.349Z,101321.84
